This is the latest recevied weather packets stored in our database for station/object KI6AOK. If no packets are shown the sender has not sent any weather packets the latest 10 day(s).
| Time | Temp. | Humidity | Pressure | Rain* | Wind** | Luminosity | Snow |
|---|---|---|---|---|---|---|---|
| 1777509110 | 21.11° C | 48% | 1014.8 hPa | 0 mm | - | 242 W/m² | - |
| 1777508807 | 20.56° C | 48% | 1014.5 hPa | 0 mm | - | 255 W/m² | - |
| 1777508504 | 21.11° C | 47% | 1014.7 hPa | 0 mm | - | 248 W/m² | - |
| 1777508201 | 21.11° C | 47% | 1014.9 hPa | 0 mm | - | 290 W/m² | - |
| 1777507898 | 21.11° C | 47% | 1014.8 hPa | 0 mm | - | 235 W/m² | - |
| 1777507595 | 21.11° C | 48% | 1014.8 hPa | 0 mm | - | 190 W/m² | - |
| 1777507292 | 21.11° C | 48% | 1014.9 hPa | 0 mm | - | 322 W/m² | - |
| 1777506989 | 21.11° C | 47% | 1014.9 hPa | 0 mm | - | 330 W/m² | - |
| 1777506686 | 21.11° C | 48% | 1014.8 hPa | 0 mm | - | 322 W/m² | - |
| 1777506383 | 21.11° C | 48% | 1014.8 hPa | 0 mm | - | 387 W/m² | - |
| 1777506079 | 21.67° C | 46% | 1014.8 hPa | 0 mm | - | 394 W/m² | - |
| 1777505774 | 21.67° C | 47% | 1015 hPa | 0 mm | - | 403 W/m² | - |
| 1777505472 | 22.22° C | 43% | 1015.1 hPa | 0 mm | - | 417 W/m² | - |
| 1777505168 | 21.67° C | 46% | 1014.9 hPa | 0 mm | - | 428 W/m² | - |
| 1777504865 | 21.67° C | 46% | 1015 hPa | 0 mm | - | 443 W/m² | - |
| 1777504562 | 21.67° C | 47% | 1014.8 hPa | 0 mm | - | 457 W/m² | - |
| 1777504258 | 22.22° C | 46% | 1014.8 hPa | 0 mm | - | 477 W/m² | - |
| 1777503954 | 22.22° C | 46% | 1014.9 hPa | 0 mm | - | 490 W/m² | - |
| 1777503650 | 22.22° C | 44% | 1014.9 hPa | 0 mm | - | 510 W/m² | - |
| 1777503347 | 21.67° C | 45% | 1015 hPa | 0 mm | - | 526 W/m² | - |
| 1777503043 | 21.67° C | 46% | 1014.9 hPa | 0 mm | - | 542 W/m² | - |
| 1777502741 | 22.22° C | 46% | 1015 hPa | 0 mm | - | 557 W/m² | - |
| 1777502437 | 22.22° C | 45% | 1015 hPa | 0 mm | - | 572 W/m² | - |
| 1777502134 | 21.67° C | 47% | 1014.9 hPa | 0 mm | - | 587 W/m² | - |
| 1777501832 | 21.11° C | 48% | 1014.9 hPa | 0 mm | - | 604 W/m² | - |
* Rain latest hour (hover to see other rain measurements)
** Current wind speed in m/s (hover to see current wind gust speed)